createdAt,value
2022-08-30T00:01:25.559Z,20.15
2022-08-30T00:03:55.937Z,20.27
2022-08-30T00:06:25.194Z,20.21
2022-08-30T00:08:54.503Z,20.10
2022-08-30T00:11:27.293Z,20.13
2022-08-30T00:13:57.889Z,20.19
2022-08-30T00:16:26.865Z,20.22
2022-08-30T00:18:57.040Z,20.19
2022-08-30T00:21:27.122Z,20.05
2022-08-30T00:23:55.597Z,19.95
2022-08-30T00:26:23.439Z,20.05
2022-08-30T00:28:51.274Z,19.98
2022-08-30T00:31:19.159Z,20.11
2022-08-30T00:33:47.209Z,20.07
2022-08-30T00:36:16.534Z,20.10
2022-08-30T00:38:44.504Z,20.16
2022-08-30T00:41:12.451Z,20.22
2022-08-30T00:43:40.311Z,19.91
2022-08-30T00:46:10.255Z,19.76
2022-08-30T00:48:44.416Z,19.79
2022-08-30T00:51:16.866Z,19.88
2022-08-30T00:53:49.945Z,20.08
2022-08-30T00:56:19.878Z,20.07
2022-08-30T00:58:55.728Z,19.87
2022-08-30T01:01:24.556Z,19.48
2022-08-30T01:03:53.419Z,19.56
2022-08-30T01:06:23.088Z,19.69
2022-08-30T01:08:50.949Z,19.91
2022-08-30T01:11:23.571Z,19.90
2022-08-30T01:13:56.121Z,19.82
2022-08-30T01:16:25.968Z,19.96
2022-08-30T01:18:59.524Z,19.74
2022-08-30T01:21:37.916Z,19.44
2022-08-30T01:24:09.964Z,19.33
2022-08-30T01:26:39.759Z,19.71
2022-08-30T01:29:12.368Z,19.82
2022-08-30T01:31:40.567Z,19.71
2022-08-30T01:34:10.019Z,19.77
2022-08-30T01:36:45.031Z,19.75
2022-08-30T01:39:18.208Z,19.75
2022-08-30T01:41:46.638Z,19.38
2022-08-30T01:44:15.985Z,19.18
2022-08-30T01:46:47.862Z,18.67
2022-08-30T01:49:27.747Z,18.80
2022-08-30T01:52:00.560Z,19.15
2022-08-30T01:54:33.207Z,19.54
2022-08-30T01:57:06.590Z,19.23
2022-08-30T01:59:35.353Z,19.42
2022-08-30T02:02:04.195Z,19.05
2022-08-30T02:04:32.341Z,18.97
2022-08-30T02:07:00.413Z,18.50
2022-08-30T02:09:29.682Z,19.11
2022-08-30T02:11:57.957Z,18.82
2022-08-30T02:14:26.308Z,19.07
2022-08-30T02:16:54.308Z,18.84
2022-08-30T02:19:22.231Z,18.68
2022-08-30T02:21:50.253Z,18.81
2022-08-30T02:24:18.119Z,18.72
2022-08-30T02:26:47.276Z,18.70
2022-08-30T02:29:15.707Z,18.10
2022-08-30T02:31:43.557Z,18.43
2022-08-30T02:34:11.430Z,18.67
2022-08-30T02:36:40.824Z,18.91
2022-08-30T02:39:09.311Z,18.65
2022-08-30T02:41:38.236Z,18.92
2022-08-30T02:44:09.293Z,18.88
2022-08-30T02:46:37.430Z,18.39
2022-08-30T02:49:30.251Z,18.75
2022-08-30T02:51:54.112Z,18.79
2022-08-30T02:54:21.977Z,19.10
2022-08-30T02:56:51.601Z,19.04
2022-08-30T02:59:20.983Z,19.21
2022-08-30T03:01:49.081Z,19.20
2022-08-30T03:04:17.027Z,19.12
2022-08-30T03:06:45.593Z,18.58
2022-08-30T03:09:13.545Z,18.72
2022-08-30T03:11:42.653Z,18.82
2022-08-30T03:14:10.468Z,19.01
2022-08-30T03:16:39.762Z,19.04
2022-08-30T03:19:07.703Z,18.57
2022-08-30T03:21:38.975Z,18.76
2022-08-30T03:24:07.868Z,18.75
2022-08-30T03:26:35.773Z,18.56
2022-08-30T03:29:03.834Z,18.87
2022-08-30T03:31:31.887Z,18.57
2022-08-30T03:34:21.901Z,18.52
2022-08-30T03:36:49.912Z,18.14
2022-08-30T03:39:17.721Z,18.31
2022-08-30T03:41:45.794Z,18.66
2022-08-30T03:44:13.853Z,18.78
2022-08-30T03:46:43.404Z,18.78
2022-08-30T03:49:11.242Z,18.92
2022-08-30T03:51:40.540Z,18.62
2022-08-30T03:54:08.874Z,18.82
2022-08-30T03:56:37.421Z,18.64
2022-08-30T03:59:06.361Z,17.96
2022-08-30T04:01:34.218Z,18.34
2022-08-30T04:04:02.221Z,18.61
2022-08-30T04:06:31.745Z,18.59
2022-08-30T04:09:00.914Z,18.11
2022-08-30T04:11:28.858Z,18.68
2022-08-30T04:13:56.852Z,18.86
2022-08-30T04:16:26.419Z,18.85
2022-08-30T04:18:54.520Z,18.73
2022-08-30T04:21:22.843Z,18.90
2022-08-30T04:23:50.652Z,18.95
2022-08-30T04:26:20.237Z,18.93
2022-08-30T04:28:48.466Z,19.01
2022-08-30T04:31:18.997Z,18.86
2022-08-30T04:33:47.033Z,18.41
2022-08-30T04:36:15.508Z,18.15
2022-08-30T04:38:44.125Z,18.60
2022-08-30T04:41:16.351Z,18.61
2022-08-30T04:43:46.677Z,18.73
2022-08-30T04:46:15.491Z,18.83
2022-08-30T04:48:43.716Z,18.99
2022-08-30T04:51:16.712Z,18.82
2022-08-30T04:53:45.965Z,18.20
2022-08-30T04:56:17.448Z,18.62
2022-08-30T04:58:48.658Z,18.93
2022-08-30T05:01:21.658Z,18.86
2022-08-30T05:03:54.206Z,18.84
2022-08-30T05:06:23.368Z,19.12
2022-08-30T05:08:51.838Z,19.11
2022-08-30T05:11:19.954Z,19.09
2022-08-30T05:13:49.761Z,19.18
2022-08-30T05:16:19.558Z,19.25
2022-08-30T05:18:49.399Z,19.17
2022-08-30T05:21:21.212Z,19.21
2022-08-30T05:23:50.535Z,19.27
2022-08-30T05:26:22.573Z,19.25
2022-08-30T05:28:55.078Z,19.34
2022-08-30T05:31:26.298Z,19.22
2022-08-30T05:33:56.605Z,19.04
2022-08-30T05:36:28.221Z,19.16
2022-08-30T05:38:57.039Z,19.38
2022-08-30T05:41:26.621Z,19.35
2022-08-30T05:43:59.404Z,19.66
2022-08-30T05:49:08.590Z,19.64
2022-08-30T05:51:42.982Z,19.71
2022-08-30T05:54:13.409Z,19.78
2022-08-30T05:56:44.380Z,19.74
2022-08-30T05:59:15.370Z,19.74
2022-08-30T06:01:46.170Z,19.66
2022-08-30T06:04:15.020Z,19.76
2022-08-30T06:06:45.265Z,19.86
2022-08-30T06:09:15.770Z,19.98
2022-08-30T06:11:44.368Z,20.00
2022-08-30T06:14:13.982Z,19.99
2022-08-30T06:16:44.170Z,19.97
2022-08-30T06:19:13.090Z,20.04
2022-08-30T06:21:42.686Z,19.88
2022-08-30T06:24:12.958Z,19.81
2022-08-30T06:26:45.428Z,19.73
2022-08-30T06:29:19.201Z,19.75
2022-08-30T06:31:47.467Z,20.05
2022-08-30T06:34:15.846Z,20.24
2022-08-30T06:36:44.214Z,20.36
2022-08-30T06:39:12.492Z,20.46
2022-08-30T06:41:42.694Z,20.57
2022-08-30T06:44:10.608Z,20.34
2022-08-30T06:46:40.511Z,19.55
2022-08-30T06:49:08.709Z,19.79
2022-08-30T06:51:41.315Z,19.83
2022-08-30T06:54:12.280Z,19.72
2022-08-30T06:56:55.281Z,19.79
2022-08-30T06:59:25.910Z,20.15
2022-08-30T07:01:56.375Z,19.67
2022-08-30T07:04:25.045Z,19.22
2022-08-30T07:06:53.337Z,19.83
2022-08-30T07:09:22.861Z,19.29
2022-08-30T07:11:52.773Z,19.54
2022-08-30T07:14:21.551Z,20.12
2022-08-30T07:16:51.257Z,19.90
2022-08-30T07:19:22.662Z,20.41
2022-08-30T07:21:51.172Z,20.31
2022-08-30T07:24:20.235Z,20.40
2022-08-30T07:26:52.046Z,20.80
2022-08-30T07:29:21.207Z,20.32
2022-08-30T07:31:49.585Z,20.35
2022-08-30T07:34:19.280Z,20.64
2022-08-30T07:36:49.930Z,20.90
2022-08-30T07:39:17.807Z,20.78
2022-08-30T07:41:45.735Z,20.31
2022-08-30T07:44:13.650Z,20.07
2022-08-30T07:46:42.925Z,20.73
2022-08-30T07:49:13.054Z,20.07
2022-08-30T07:51:41.842Z,19.47
2022-08-30T07:54:11.039Z,19.05
2022-08-30T07:56:39.010Z,19.49
2022-08-30T07:59:06.946Z,19.52
2022-08-30T08:01:35.114Z,18.95
2022-08-30T08:04:03.796Z,19.32
2022-08-30T08:06:34.721Z,20.05
2022-08-30T08:09:02.944Z,20.12
2022-08-30T08:11:33.805Z,20.66
2022-08-30T08:14:02.845Z,20.38
2022-08-30T08:16:34.370Z,21.17
2022-08-30T08:19:02.577Z,20.56
2022-08-30T08:21:30.483Z,21.11
2022-08-30T08:23:58.332Z,20.37
2022-08-30T08:26:26.165Z,20.75
2022-08-30T08:28:55.731Z,20.51
2022-08-30T08:31:29.932Z,19.97
2022-08-30T08:34:04.203Z,19.80
2022-08-30T08:36:33.224Z,20.74
2022-08-30T08:39:02.607Z,20.46
2022-08-30T08:41:51.110Z,20.02
2022-08-30T08:44:55.471Z,19.96
2022-08-30T08:47:37.470Z,20.09
2022-08-30T08:50:12.384Z,19.66
2022-08-30T08:53:24.927Z,20.16
2022-08-30T08:55:59.797Z,20.27
2022-08-30T08:58:45.709Z,19.13
2022-08-30T09:01:19.561Z,18.68
2022-08-30T09:03:48.311Z,18.84
2022-08-30T09:06:47.629Z,18.90
2022-08-30T09:09:17.708Z,19.51
2022-08-30T09:11:48.943Z,19.21
2022-08-30T09:14:23.541Z,18.90
2022-08-30T09:17:03.735Z,18.82
2022-08-30T09:19:41.327Z,19.19
2022-08-30T09:22:22.640Z,19.11
2022-08-30T09:24:54.546Z,19.35
2022-08-30T09:27:28.105Z,19.01
2022-08-30T09:30:02.376Z,18.71
2022-08-30T09:32:37.049Z,19.48
2022-08-30T09:35:12.014Z,19.32
2022-08-30T09:37:47.880Z,19.19
2022-08-30T09:40:29.715Z,19.43
2022-08-30T09:43:08.736Z,19.61
2022-08-30T09:45:47.176Z,19.35
2022-08-30T09:48:32.985Z,19.23
2022-08-30T09:51:33.384Z,19.67
2022-08-30T09:54:18.120Z,19.68
2022-08-30T09:57:05.113Z,19.75
2022-08-30T09:59:57.900Z,19.99
2022-08-30T10:02:49.062Z,20.04
2022-08-30T10:05:28.492Z,19.93
2022-08-30T10:08:13.146Z,19.92
2022-08-30T10:10:52.751Z,20.16
2022-08-30T10:13:47.787Z,19.62
2022-08-30T10:16:32.561Z,19.78
2022-08-30T10:19:19.592Z,19.67
2022-08-30T10:21:58.760Z,19.25
2022-08-30T10:24:33.787Z,19.29
2022-08-30T10:27:09.587Z,20.14
2022-08-30T10:29:45.259Z,20.58
2022-08-30T10:32:22.568Z,20.10
2022-08-30T10:34:57.447Z,20.81
2022-08-30T10:37:30.577Z,20.24
2022-08-30T10:40:26.559Z,20.20
2022-08-30T10:42:59.405Z,21.15
2022-08-30T10:45:33.952Z,21.25
2022-08-30T10:48:12.337Z,21.68
2022-08-30T10:50:47.379Z,20.70
2022-08-30T10:53:29.350Z,20.68
2022-08-30T10:56:04.206Z,21.71
2022-08-30T10:58:33.111Z,22.16
2022-08-30T11:01:26.700Z,22.65
2022-08-30T11:04:46.268Z,21.94
2022-08-30T11:07:28.724Z,22.84
2022-08-30T11:10:22.319Z,22.43
2022-08-30T11:16:02.084Z,21.80
2022-08-30T11:18:34.468Z,22.17
2022-08-30T11:21:24.070Z,22.62
2022-08-30T11:24:10.847Z,21.22
2022-08-30T11:27:01.601Z,22.08
2022-08-30T11:29:42.430Z,22.70
2022-08-30T11:32:59.885Z,22.27
2022-08-30T11:35:48.078Z,21.56
2022-08-30T11:39:03.844Z,22.49
2022-08-30T11:41:42.052Z,22.39
2022-08-30T11:44:32.353Z,22.32
2022-08-30T11:47:03.348Z,22.44
2022-08-30T11:49:58.679Z,22.46
2022-08-30T11:52:46.699Z,22.02
2022-08-30T11:55:43.110Z,22.56
2022-08-30T11:58:28.278Z,22.19
2022-08-30T12:01:51.092Z,22.58
2022-08-30T12:04:37.916Z,21.79
2022-08-30T12:07:09.097Z,21.44
2022-08-30T12:10:07.023Z,22.04
2022-08-30T12:12:56.439Z,21.82
2022-08-30T12:15:57.861Z,21.62
2022-08-30T12:18:33.835Z,23.11
2022-08-30T12:21:13.249Z,23.27
2022-08-30T12:23:51.449Z,23.23
2022-08-30T12:26:36.159Z,23.15
2022-08-30T12:29:13.951Z,22.33
2022-08-30T12:31:47.217Z,22.70
2022-08-30T12:34:28.760Z,22.62
2022-08-30T12:37:04.497Z,22.97
2022-08-30T12:39:36.415Z,23.16
2022-08-30T12:42:19.764Z,22.73
2022-08-30T12:44:50.253Z,22.46
2022-08-30T12:47:25.637Z,22.14
2022-08-30T12:49:56.521Z,22.30
2022-08-30T12:52:36.665Z,22.17
2022-08-30T12:55:19.158Z,23.38
2022-08-30T12:58:01.287Z,23.77
2022-08-30T13:00:32.914Z,22.60
2022-08-30T13:03:21.890Z,22.68
2022-08-30T13:05:54.533Z,23.13
2022-08-30T13:08:26.262Z,22.33
2022-08-30T13:11:04.393Z,23.01
2022-08-30T13:13:41.629Z,22.59
2022-08-30T13:16:26.715Z,22.57
2022-08-30T13:19:28.857Z,23.68
2022-08-30T13:22:00.354Z,23.47
2022-08-30T13:24:29.072Z,23.13
2022-08-30T13:27:03.262Z,22.68
2022-08-30T13:29:31.949Z,23.12
2022-08-30T13:32:00.041Z,23.00
2022-08-30T13:34:32.922Z,23.64
2022-08-30T13:37:03.977Z,23.36
2022-08-30T13:39:32.552Z,22.81
2022-08-30T13:44:49.894Z,22.68
2022-08-30T13:47:35.627Z,23.11
2022-08-30T13:50:06.589Z,23.29
2022-08-30T13:52:37.069Z,22.91
2022-08-30T13:55:07.738Z,22.50
2022-08-30T14:00:25.019Z,22.70
2022-08-30T14:02:57.264Z,22.47
2022-08-30T14:05:48.413Z,22.87
2022-08-30T14:11:13.046Z,22.60
2022-08-30T14:16:32.396Z,22.67
2022-08-30T14:19:01.814Z,22.84
2022-08-30T14:21:30.414Z,22.95
2022-08-30T14:23:59.809Z,22.31
2022-08-30T14:26:33.645Z,22.34
2022-08-30T14:29:03.214Z,22.18
2022-08-30T14:31:32.795Z,21.72
2022-08-30T14:34:03.282Z,22.10
2022-08-30T14:36:33.295Z,22.28
2022-08-30T14:39:06.230Z,22.51
2022-08-30T14:41:43.589Z,22.83
2022-08-30T14:44:12.258Z,21.98
2022-08-30T14:46:40.605Z,22.01
2022-08-30T14:49:10.245Z,21.69
2022-08-30T14:51:39.513Z,21.80
2022-08-30T14:54:10.444Z,21.87
2022-08-30T14:56:40.233Z,21.93
2022-08-30T14:59:08.953Z,22.66
2022-08-30T15:01:38.934Z,22.65
2022-08-30T15:04:09.399Z,22.64
2022-08-30T15:06:38.623Z,22.26
2022-08-30T15:09:12.520Z,22.26
2022-08-30T15:11:41.972Z,21.81
2022-08-30T15:14:15.399Z,22.04
2022-08-30T15:16:44.462Z,22.66
2022-08-30T15:19:13.298Z,22.42
2022-08-30T15:21:44.074Z,22.33
2022-08-30T15:24:18.319Z,22.20
2022-08-30T15:26:46.864Z,22.46
2022-08-30T15:29:19.754Z,21.84
2022-08-30T15:31:49.814Z,21.88
2022-08-30T15:34:21.488Z,21.93
2022-08-30T15:36:56.169Z,21.94
2022-08-30T15:39:25.820Z,21.73
2022-08-30T15:42:00.307Z,22.32
2022-08-30T15:44:30.820Z,22.74
2022-08-30T15:46:59.255Z,22.70
2022-08-30T15:49:27.364Z,21.96
2022-08-30T15:51:55.444Z,22.45
2022-08-30T15:54:25.385Z,22.48
2022-08-30T15:56:59.402Z,22.21
2022-08-30T15:59:28.912Z,22.14
2022-08-30T16:01:57.488Z,22.21
2022-08-30T16:04:25.993Z,22.08
2022-08-30T16:06:54.770Z,22.13
2022-08-30T16:09:26.528Z,22.09
2022-08-30T16:11:58.168Z,22.16
2022-08-30T16:14:27.548Z,21.98
2022-08-30T16:16:55.699Z,21.75
2022-08-30T16:19:23.647Z,21.33
2022-08-30T16:21:52.448Z,21.72
2022-08-30T16:24:22.825Z,21.59
2022-08-30T16:26:52.532Z,21.88
2022-08-30T16:29:21.146Z,21.46
2022-08-30T16:31:50.225Z,21.88
2022-08-30T16:34:21.072Z,22.00
2022-08-30T16:36:49.587Z,22.16
2022-08-30T16:39:17.760Z,22.55
2022-08-30T16:41:46.537Z,21.92
2022-08-30T16:44:16.015Z,21.96
2022-08-30T16:46:52.687Z,21.72
2022-08-30T16:49:22.985Z,22.04
2022-08-30T16:51:51.487Z,21.05
2022-08-30T16:54:20.881Z,21.34
2022-08-30T16:56:48.970Z,21.51
2022-08-30T16:59:18.927Z,21.20
2022-08-30T17:01:48.160Z,21.88
2022-08-30T17:04:19.228Z,21.95
2022-08-30T17:06:49.784Z,22.10
2022-08-30T17:09:19.029Z,21.35
2022-08-30T17:11:47.636Z,21.50
2022-08-30T17:14:17.848Z,21.63
2022-08-30T17:16:52.316Z,21.49
2022-08-30T17:19:27.213Z,21.30
2022-08-30T17:21:58.064Z,21.54
2022-08-30T17:24:26.680Z,21.49
2022-08-30T17:26:55.185Z,22.11
2022-08-30T17:29:23.276Z,21.65
2022-08-30T17:31:52.560Z,22.06
2022-08-30T17:34:21.195Z,22.08
2022-08-30T17:36:52.578Z,21.50
2022-08-30T17:39:22.079Z,20.96
2022-08-30T17:41:51.617Z,21.20
2022-08-30T17:44:25.869Z,20.68
2022-08-30T17:46:57.160Z,20.54
2022-08-30T17:49:26.801Z,20.48
2022-08-30T17:51:57.053Z,20.83
2022-08-30T17:54:26.602Z,20.51
2022-08-30T17:56:55.395Z,20.40
2022-08-30T17:59:25.089Z,20.08
2022-08-30T18:01:56.238Z,20.31
2022-08-30T18:04:25.735Z,20.40
2022-08-30T18:06:54.749Z,20.22
2022-08-30T18:09:23.785Z,20.38
2022-08-30T18:11:52.380Z,20.31
2022-08-30T18:14:25.025Z,20.33
2022-08-30T18:16:54.763Z,20.19
2022-08-30T18:19:24.941Z,19.91
2022-08-30T18:21:54.339Z,20.58
2022-08-30T18:24:23.824Z,20.93
2022-08-30T18:26:54.591Z,20.90
2022-08-30T18:29:29.177Z,21.19
2022-08-30T18:31:59.426Z,20.75
2022-08-30T18:34:29.135Z,21.07
2022-08-30T18:36:57.872Z,20.91
2022-08-30T18:39:26.906Z,20.36
2022-08-30T18:41:57.087Z,19.99
2022-08-30T18:44:28.938Z,20.14
2022-08-30T18:47:00.523Z,20.25
2022-08-30T18:49:33.412Z,19.86
2022-08-30T18:52:02.421Z,19.85
2022-08-30T18:54:31.122Z,20.13
2022-08-30T18:56:59.317Z,20.20
2022-08-30T18:59:35.607Z,20.23
2022-08-30T19:02:18.073Z,20.00
2022-08-30T19:04:49.008Z,19.72
2022-08-30T19:07:20.246Z,19.83
2022-08-30T19:09:51.322Z,19.35
2022-08-30T19:12:19.323Z,19.81
2022-08-30T19:14:47.261Z,19.82
2022-08-30T19:17:15.628Z,19.45
2022-08-30T19:19:48.251Z,19.50
2022-08-30T19:22:19.470Z,19.14
2022-08-30T19:24:47.809Z,20.08
2022-08-30T19:27:21.569Z,20.25
2022-08-30T19:30:06.998Z,20.13
2022-08-30T19:32:35.725Z,19.89
2022-08-30T19:35:04.141Z,19.89
2022-08-30T19:37:34.386Z,20.50
2022-08-30T19:40:02.898Z,20.30
2022-08-30T19:42:30.787Z,20.13
2022-08-30T19:44:58.742Z,20.03
2022-08-30T19:47:26.972Z,20.00
2022-08-30T19:49:55.242Z,20.18
2022-08-30T19:52:23.599Z,20.39
2022-08-30T19:54:57.325Z,19.93
2022-08-30T19:57:25.859Z,19.47
2022-08-30T19:59:55.881Z,20.41
2022-08-30T20:02:23.794Z,20.33
2022-08-30T20:04:55.383Z,19.59
2022-08-30T20:07:27.592Z,20.03
2022-08-30T20:09:57.625Z,20.22
2022-08-30T20:12:25.453Z,19.73
2022-08-30T20:14:53.726Z,20.13
2022-08-30T20:17:34.137Z,19.51
2022-08-30T20:20:18.605Z,19.31
2022-08-30T20:22:50.970Z,19.65
2022-08-30T20:25:23.896Z,19.15
2022-08-30T20:27:52.252Z,18.88
2022-08-30T20:30:20.531Z,19.45
2022-08-30T20:32:48.638Z,19.38
2022-08-30T20:35:18.221Z,19.05
2022-08-30T20:37:46.750Z,19.42
2022-08-30T20:40:16.338Z,19.16
2022-08-30T20:42:46.327Z,18.88
2022-08-30T20:45:17.736Z,19.78
2022-08-30T20:47:46.139Z,19.53
2022-08-30T20:50:16.749Z,18.90
2022-08-30T20:52:46.155Z,19.05
2022-08-30T20:55:14.928Z,18.50
2022-08-30T20:57:42.811Z,19.04
2022-08-30T21:00:14.412Z,18.65
2022-08-30T21:02:46.992Z,18.51
2022-08-30T21:05:18.230Z,18.57
2022-08-30T21:07:48.182Z,19.07
2022-08-30T21:10:21.298Z,19.00
2022-08-30T21:12:51.887Z,18.21
2022-08-30T21:15:38.439Z,18.46
2022-08-30T21:18:06.741Z,18.63
2022-08-30T21:20:34.636Z,19.00
2022-08-30T21:23:02.525Z,18.80
2022-08-30T21:25:33.203Z,18.30
2022-08-30T21:28:01.339Z,18.40
2022-08-30T21:30:30.669Z,18.77
2022-08-30T21:32:59.925Z,18.49
2022-08-30T21:35:46.072Z,19.03
2022-08-30T21:38:14.205Z,18.24
2022-08-30T21:40:42.707Z,18.03
2022-08-30T21:43:11.203Z,17.83
2022-08-30T21:45:41.580Z,17.79
2022-08-30T21:48:11.609Z,17.64
2022-08-30T21:50:41.955Z,17.56
2022-08-30T21:53:10.866Z,17.78
2022-08-30T21:55:43.733Z,17.71
2022-08-30T21:58:12.099Z,17.69
2022-08-30T22:00:41.257Z,18.65
2022-08-30T22:03:09.265Z,18.30
2022-08-30T22:05:37.243Z,18.32
2022-08-30T22:08:05.447Z,18.39
2022-08-30T22:10:33.565Z,18.34
2022-08-30T22:13:01.608Z,18.49
2022-08-30T22:15:31.784Z,18.71
2022-08-30T22:18:01.534Z,17.89
2022-08-30T22:20:30.534Z,18.36
2022-08-30T22:22:59.064Z,19.00
2022-08-30T22:25:26.967Z,18.61
2022-08-30T22:27:54.834Z,17.68
2022-08-30T22:30:22.676Z,17.88
2022-08-30T22:32:50.654Z,18.57
2022-08-30T22:35:21.903Z,18.29
2022-08-30T22:37:53.277Z,17.37
2022-08-30T22:40:22.283Z,17.24
2022-08-30T22:42:50.302Z,17.55
2022-08-30T22:45:18.358Z,18.75
2022-08-30T22:47:46.238Z,18.27
2022-08-30T22:50:14.235Z,18.14
2022-08-30T22:52:44.007Z,17.94
2022-08-30T22:55:12.218Z,17.81
2022-08-30T22:57:41.158Z,18.22
2022-08-30T23:00:15.933Z,18.52
2022-08-30T23:02:44.850Z,17.83
2022-08-30T23:05:14.073Z,17.84
2022-08-30T23:07:44.243Z,17.60
2022-08-30T23:10:15.191Z,18.35
2022-08-30T23:12:43.493Z,18.60
2022-08-30T23:15:16.005Z,18.06
2022-08-30T23:17:43.847Z,18.21
2022-08-30T23:20:12.893Z,18.11
2022-08-30T23:22:40.852Z,18.36
2022-08-30T23:25:32.013Z,17.87
2022-08-30T23:28:21.905Z,17.59
2022-08-30T23:31:07.561Z,17.27
2022-08-30T23:33:53.033Z,17.46
2022-08-30T23:36:38.496Z,17.35
2022-08-30T23:39:24.054Z,18.18
2022-08-30T23:42:10.898Z,17.95
2022-08-30T23:44:56.356Z,17.56
2022-08-30T23:47:41.997Z,18.18
2022-08-30T23:50:27.938Z,18.06
2022-08-30T23:53:13.557Z,18.09
2022-08-30T23:55:59.566Z,17.34
2022-08-30T23:58:46.326Z,17.36
